sensor_id;sensor_type;location;lat;lon;timestamp;temperature;humidity
9544;DHT22;30418;51.45933468;7.33152330;2023-08-21T00:00:05;25.70;56.00
9544;DHT22;30418;51.45933468;7.33152330;2023-08-21T00:02:39;25.70;56.00
9544;DHT22;30418;51.45933468;7.33152330;2023-08-21T00:05:08;25.60;56.00
9544;DHT22;30418;51.45933468;7.33152330;2023-08-21T00:07:38;25.60;56.00
9544;DHT22;30418;51.45933468;7.33152330;2023-08-21T00:10:08;25.60;56.10
9544;DHT22;30418;51.45933468;7.33152330;2023-08-21T00:12:40;25.50;56.20
9544;DHT22;30418;51.45933468;7.33152330;2023-08-21T00:15:09;25.50;56.20
9544;DHT22;30418;51.45933468;7.33152330;2023-08-21T00:17:38;25.50;56.30
9544;DHT22;30418;51.45933468;7.33152330;2023-08-21T00:20:07;25.40;56.30
9544;DHT22;30418;51.45933468;7.33152330;2023-08-21T00:22:38;25.40;56.30
9544;DHT22;30418;51.45933468;7.33152330;2023-08-21T00:25:07;25.40;56.40
9544;DHT22;30418;51.45933468;7.33152330;2023-08-21T00:27:36;25.30;56.50
9544;DHT22;30418;51.45933468;7.33152330;2023-08-21T00:30:05;25.30;56.50
9544;DHT22;30418;51.45933468;7.33152330;2023-08-21T00:32:34;25.30;56.60
9544;DHT22;30418;51.45933468;7.33152330;2023-08-21T00:35:04;25.20;56.60
9544;DHT22;30418;51.45933468;7.33152330;2023-08-21T00:37:33;25.20;56.50
9544;DHT22;30418;51.45933468;7.33152330;2023-08-21T00:40:04;25.20;56.60
9544;DHT22;30418;51.45933468;7.33152330;2023-08-21T00:42:33;25.20;56.70
9544;DHT22;30418;51.45933468;7.33152330;2023-08-21T00:45:02;25.10;56.60
9544;DHT22;30418;51.45933468;7.33152330;2023-08-21T00:47:31;25.10;56.70
9544;DHT22;30418;51.45933468;7.33152330;2023-08-21T00:50:00;25.10;56.60
9544;DHT22;30418;51.45933468;7.33152330;2023-08-21T00:52:30;25.00;56.60
9544;DHT22;30418;51.45933468;7.33152330;2023-08-21T00:55:00;25.10;56.60
9544;DHT22;30418;51.45933468;7.33152330;2023-08-21T00:57:31;25.00;56.60
9544;DHT22;30418;51.45933468;7.33152330;2023-08-21T01:00:00;25.00;56.70
9544;DHT22;30418;51.45933468;7.33152330;2023-08-21T01:02:29;25.00;56.70
9544;DHT22;30418;51.45933468;7.33152330;2023-08-21T01:04:57;25.00;57.30
9544;DHT22;30418;51.45933468;7.33152330;2023-08-21T01:07:26;25.00;56.80
9544;DHT22;30418;51.45933468;7.33152330;2023-08-21T01:10:01;25.00;56.90
9544;DHT22;30418;51.45933468;7.33152330;2023-08-21T01:12:40;24.90;56.90
9544;DHT22;30418;51.45933468;7.33152330;2023-08-21T01:15:13;24.90;56.90
9544;DHT22;30418;51.45933468;7.33152330;2023-08-21T01:17:43;24.90;56.90
9544;DHT22;30418;51.45933468;7.33152330;2023-08-21T01:20:14;25.00;57.10
9544;DHT22;30418;51.45933468;7.33152330;2023-08-21T01:22:44;25.00;57.00
9544;DHT22;30418;51.45933468;7.33152330;2023-08-21T01:25:15;24.90;57.00
9544;DHT22;30418;51.45933468;7.33152330;2023-08-21T01:27:45;24.90;56.90
9544;DHT22;30418;51.45933468;7.33152330;2023-08-21T01:30:16;24.90;57.00
9544;DHT22;30418;51.45933468;7.33152330;2023-08-21T01:32:50;24.90;57.00
9544;DHT22;30418;51.45933468;7.33152330;2023-08-21T01:35:22;24.90;57.10
9544;DHT22;30418;51.45933468;7.33152330;2023-08-21T01:37:52;25.00;57.30
9544;DHT22;30418;51.45933468;7.33152330;2023-08-21T01:40:23;24.90;57.30
9544;DHT22;30418;51.45933468;7.33152330;2023-08-21T01:42:52;25.00;57.40
9544;DHT22;30418;51.45933468;7.33152330;2023-08-21T01:45:22;24.90;57.30
9544;DHT22;30418;51.45933468;7.33152330;2023-08-21T01:47:50;24.90;57.30
9544;DHT22;30418;51.45933468;7.33152330;2023-08-21T01:50:19;24.90;57.30
9544;DHT22;30418;51.45933468;7.33152330;2023-08-21T01:52:47;24.90;57.30
9544;DHT22;30418;51.45933468;7.33152330;2023-08-21T01:55:16;24.90;57.30
9544;DHT22;30418;51.45933468;7.33152330;2023-08-21T01:57:46;24.90;57.30
9544;DHT22;30418;51.45933468;7.33152330;2023-08-21T02:00:15;24.90;57.30
9544;DHT22;30418;51.45933468;7.33152330;2023-08-21T02:02:44;24.90;57.30
9544;DHT22;30418;51.45933468;7.33152330;2023-08-21T02:05:12;24.90;57.40
9544;DHT22;30418;51.45933468;7.33152330;2023-08-21T02:07:41;24.90;57.30
9544;DHT22;30418;51.45933468;7.33152330;2023-08-21T02:10:10;24.90;57.30
9544;DHT22;30418;51.45933468;7.33152330;2023-08-21T02:12:39;24.90;57.30
9544;DHT22;30418;51.45933468;7.33152330;2023-08-21T02:15:10;24.80;57.30
9544;DHT22;30418;51.45933468;7.33152330;2023-08-21T02:17:41;24.80;57.40
9544;DHT22;30418;51.45933468;7.33152330;2023-08-21T02:20:12;24.80;57.50
9544;DHT22;30418;51.45933468;7.33152330;2023-08-21T02:22:41;24.80;57.50
9544;DHT22;30418;51.45933468;7.33152330;2023-08-21T02:25:10;24.80;57.50
9544;DHT22;30418;51.45933468;7.33152330;2023-08-21T02:27:38;24.80;57.60
9544;DHT22;30418;51.45933468;7.33152330;2023-08-21T02:30:07;24.80;57.60
9544;DHT22;30418;51.45933468;7.33152330;2023-08-21T02:32:37;24.80;57.80
9544;DHT22;30418;51.45933468;7.33152330;2023-08-21T02:35:08;24.80;57.80
9544;DHT22;30418;51.45933468;7.33152330;2023-08-21T02:37:37;24.70;57.70
9544;DHT22;30418;51.45933468;7.33152330;2023-08-21T02:40:07;24.70;57.80
9544;DHT22;30418;51.45933468;7.33152330;2023-08-21T02:42:36;24.70;57.80
9544;DHT22;30418;51.45933468;7.33152330;2023-08-21T02:45:06;24.70;57.80
9544;DHT22;30418;51.45933468;7.33152330;2023-08-21T02:47:38;24.70;57.80
9544;DHT22;30418;51.45933468;7.33152330;2023-08-21T02:50:08;24.60;57.80
9544;DHT22;30418;51.45933468;7.33152330;2023-08-21T02:52:37;24.60;57.80
9544;DHT22;30418;51.45933468;7.33152330;2023-08-21T02:55:08;24.60;57.80
9544;DHT22;30418;51.45933468;7.33152330;2023-08-21T02:57:36;24.60;57.90
9544;DHT22;30418;51.45933468;7.33152330;2023-08-21T03:00:06;24.50;57.80
9544;DHT22;30418;51.45933468;7.33152330;2023-08-21T03:02:37;24.50;57.90
9544;DHT22;30418;51.45933468;7.33152330;2023-08-21T03:05:11;24.50;58.00
9544;DHT22;30418;51.45933468;7.33152330;2023-08-21T03:07:40;24.50;57.90
9544;DHT22;30418;51.45933468;7.33152330;2023-08-21T03:10:09;24.40;58.40
9544;DHT22;30418;51.45933468;7.33152330;2023-08-21T03:12:39;24.40;57.90
9544;DHT22;30418;51.45933468;7.33152330;2023-08-21T03:15:08;24.40;58.00
9544;DHT22;30418;51.45933468;7.33152330;2023-08-21T03:17:38;24.40;58.10
9544;DHT22;30418;51.45933468;7.33152330;2023-08-21T03:20:08;24.30;58.10
9544;DHT22;30418;51.45933468;7.33152330;2023-08-21T03:22:37;24.40;58.20
9544;DHT22;30418;51.45933468;7.33152330;2023-08-21T03:25:07;24.30;58.20
9544;DHT22;30418;51.45933468;7.33152330;2023-08-21T03:27:37;24.30;58.20
9544;DHT22;30418;51.45933468;7.33152330;2023-08-21T03:30:07;24.30;58.30
9544;DHT22;30418;51.45933468;7.33152330;2023-08-21T03:32:38;24.30;58.40
9544;DHT22;30418;51.45933468;7.33152330;2023-08-21T03:35:07;24.20;58.40
9544;DHT22;30418;51.45933468;7.33152330;2023-08-21T03:37:36;24.20;58.40
9544;DHT22;30418;51.45933468;7.33152330;2023-08-21T03:40:08;24.20;58.40
9544;DHT22;30418;51.45933468;7.33152330;2023-08-21T03:42:37;24.20;58.40
9544;DHT22;30418;51.45933468;7.33152330;2023-08-21T03:45:07;24.20;58.40
9544;DHT22;30418;51.45933468;7.33152330;2023-08-21T03:47:36;24.20;58.40
9544;DHT22;30418;51.45933468;7.33152330;2023-08-21T03:50:14;24.10;58.40
9544;DHT22;30418;51.45933468;7.33152330;2023-08-21T03:52:42;24.10;58.40
9544;DHT22;30418;51.45933468;7.33152330;2023-08-21T03:55:11;24.20;58.40
9544;DHT22;30418;51.45933468;7.33152330;2023-08-21T03:57:39;24.10;58.40
9544;DHT22;30418;51.45933468;7.33152330;2023-08-21T04:00:08;24.20;58.60
9544;DHT22;30418;51.45933468;7.33152330;2023-08-21T04:02:44;24.10;58.50
9544;DHT22;30418;51.45933468;7.33152330;2023-08-21T04:05:13;24.10;58.50
9544;DHT22;30418;51.45933468;7.33152330;2023-08-21T04:07:42;24.20;58.50
9544;DHT22;30418;51.45933468;7.33152330;2023-08-21T04:10:10;24.10;58.40
9544;DHT22;30418;51.45933468;7.33152330;2023-08-21T04:12:39;24.10;58.40
9544;DHT22;30418;51.45933468;7.33152330;2023-08-21T04:15:09;24.10;58.50
9544;DHT22;30418;51.45933468;7.33152330;2023-08-21T04:17:38;24.10;58.60
9544;DHT22;30418;51.45933468;7.33152330;2023-08-21T04:20:09;24.00;58.60
9544;DHT22;30418;51.45933468;7.33152330;2023-08-21T04:22:39;24.00;58.70
9544;DHT22;30418;51.45933468;7.33152330;2023-08-21T04:25:08;24.00;58.70
9544;DHT22;30418;51.45933468;7.33152330;2023-08-21T04:27:37;24.00;58.80
9544;DHT22;30418;51.45933468;7.33152330;2023-08-21T04:30:06;24.00;58.80
9544;DHT22;30418;51.45933468;7.33152330;2023-08-21T04:32:36;24.00;58.90
9544;DHT22;30418;51.45933468;7.33152330;2023-08-21T04:35:05;24.00;58.90
9544;DHT22;30418;51.45933468;7.33152330;2023-08-21T04:37:55;24.00;59.00
9544;DHT22;30418;51.45933468;7.33152330;2023-08-21T04:40:24;24.00;59.00
9544;DHT22;30418;51.45933468;7.33152330;2023-08-21T04:42:53;24.00;59.00
9544;DHT22;30418;51.45933468;7.33152330;2023-08-21T04:45:23;24.00;59.10
9544;DHT22;30418;51.45933468;7.33152330;2023-08-21T04:47:52;24.00;59.20
9544;DHT22;30418;51.45933468;7.33152330;2023-08-21T04:50:25;24.00;59.20
9544;DHT22;30418;51.45933468;7.33152330;2023-08-21T04:52:55;24.00;59.20
9544;DHT22;30418;51.45933468;7.33152330;2023-08-21T04:55:25;24.00;59.20
9544;DHT22;30418;51.45933468;7.33152330;2023-08-21T04:57:53;24.00;59.20
9544;DHT22;30418;51.45933468;7.33152330;2023-08-21T05:00:23;24.00;59.20
9544;DHT22;30418;51.45933468;7.33152330;2023-08-21T05:02:52;24.00;59.30
9544;DHT22;30418;51.45933468;7.33152330;2023-08-21T05:05:21;24.00;59.30
9544;DHT22;30418;51.45933468;7.33152330;2023-08-21T05:07:52;24.00;59.30
9544;DHT22;30418;51.45933468;7.33152330;2023-08-21T05:10:23;24.00;59.40
9544;DHT22;30418;51.45933468;7.33152330;2023-08-21T05:12:52;24.00;59.50
9544;DHT22;30418;51.45933468;7.33152330;2023-08-21T05:15:21;24.00;59.40
9544;DHT22;30418;51.45933468;7.33152330;2023-08-21T05:17:50;24.00;59.50
9544;DHT22;30418;51.45933468;7.33152330;2023-08-21T05:20:21;24.00;59.50
9544;DHT22;30418;51.45933468;7.33152330;2023-08-21T05:22:50;24.00;59.50
9544;DHT22;30418;51.45933468;7.33152330;2023-08-21T05:25:18;24.00;59.60
9544;DHT22;30418;51.45933468;7.33152330;2023-08-21T05:27:49;24.00;59.60
9544;DHT22;30418;51.45933468;7.33152330;2023-08-21T05:30:18;24.00;59.70
9544;DHT22;30418;51.45933468;7.33152330;2023-08-21T05:32:46;24.00;59.70
9544;DHT22;30418;51.45933468;7.33152330;2023-08-21T05:35:15;24.00;59.80
9544;DHT22;30418;51.45933468;7.33152330;2023-08-21T05:37:45;24.00;59.80
9544;DHT22;30418;51.45933468;7.33152330;2023-08-21T05:40:14;24.00;59.90
9544;DHT22;30418;51.45933468;7.33152330;2023-08-21T05:42:42;24.00;59.90
9544;DHT22;30418;51.45933468;7.33152330;2023-08-21T05:45:12;24.00;60.00
9544;DHT22;30418;51.45933468;7.33152330;2023-08-21T05:47:41;24.10;60.10
9544;DHT22;30418;51.45933468;7.33152330;2023-08-21T05:50:10;24.10;60.10
9544;DHT22;30418;51.45933468;7.33152330;2023-08-21T05:52:38;24.10;60.20
9544;DHT22;30418;51.45933468;7.33152330;2023-08-21T05:55:09;24.10;60.30
9544;DHT22;30418;51.45933468;7.33152330;2023-08-21T05:57:38;24.10;60.20
9544;DHT22;30418;51.45933468;7.33152330;2023-08-21T06:00:08;24.10;60.30
9544;DHT22;30418;51.45933468;7.33152330;2023-08-21T06:02:47;24.10;60.20
9544;DHT22;30418;51.45933468;7.33152330;2023-08-21T06:05:35;24.10;60.30
9544;DHT22;30418;51.45933468;7.33152330;2023-08-21T06:08:05;24.10;60.30
9544;DHT22;30418;51.45933468;7.33152330;2023-08-21T06:10:36;24.10;60.30
9544;DHT22;30418;51.45933468;7.33152330;2023-08-21T06:13:05;24.10;60.00
9544;DHT22;30418;51.45933468;7.33152330;2023-08-21T06:15:34;24.10;59.90
9544;DHT22;30418;51.45933468;7.33152330;2023-08-21T06:18:05;24.10;60.00
9544;DHT22;30418;51.45933468;7.33152330;2023-08-21T06:20:33;24.10;60.20
9544;DHT22;30418;51.45933468;7.33152330;2023-08-21T06:23:03;24.10;60.00
9544;DHT22;30418;51.45933468;7.33152330;2023-08-21T06:25:32;24.10;60.00
9544;DHT22;30418;51.45933468;7.33152330;2023-08-21T06:28:01;24.10;59.90
9544;DHT22;30418;51.45933468;7.33152330;2023-08-21T06:30:31;24.10;60.00
9544;DHT22;30418;51.45933468;7.33152330;2023-08-21T06:33:00;24.20;60.10
9544;DHT22;30418;51.45933468;7.33152330;2023-08-21T06:35:30;24.20;60.30
9544;DHT22;30418;51.45933468;7.33152330;2023-08-21T06:37:59;24.20;60.40
9544;DHT22;30418;51.45933468;7.33152330;2023-08-21T06:40:27;24.20;60.90
9544;DHT22;30418;51.45933468;7.33152330;2023-08-21T06:42:56;24.20;60.10
9544;DHT22;30418;51.45933468;7.33152330;2023-08-21T06:45:29;24.30;60.00
9544;DHT22;30418;51.45933468;7.33152330;2023-08-21T06:48:00;24.30;60.00
9544;DHT22;30418;51.45933468;7.33152330;2023-08-21T06:50:31;24.30;60.00
9544;DHT22;30418;51.45933468;7.33152330;2023-08-21T06:52:59;24.30;60.00
9544;DHT22;30418;51.45933468;7.33152330;2023-08-21T06:55:28;24.40;59.90
9544;DHT22;30418;51.45933468;7.33152330;2023-08-21T06:57:56;24.40;59.90
9544;DHT22;30418;51.45933468;7.33152330;2023-08-21T07:00:25;24.40;59.80
9544;DHT22;30418;51.45933468;7.33152330;2023-08-21T07:02:53;24.40;59.80
9544;DHT22;30418;51.45933468;7.33152330;2023-08-21T07:05:22;24.50;59.90
9544;DHT22;30418;51.45933468;7.33152330;2023-08-21T07:07:52;24.50;59.90
9544;DHT22;30418;51.45933468;7.33152330;2023-08-21T07:10:22;24.60;60.00
9544;DHT22;30418;51.45933468;7.33152330;2023-08-21T07:12:51;24.60;60.00
9544;DHT22;30418;51.45933468;7.33152330;2023-08-21T07:15:21;24.60;60.00
9544;DHT22;30418;51.45933468;7.33152330;2023-08-21T07:17:50;24.70;60.10
9544;DHT22;30418;51.45933468;7.33152330;2023-08-21T07:20:19;24.70;60.10
9544;DHT22;30418;51.45933468;7.33152330;2023-08-21T07:22:47;24.80;60.20
9544;DHT22;30418;51.45933468;7.33152330;2023-08-21T07:25:18;24.80;60.90
9544;DHT22;30418;51.45933468;7.33152330;2023-08-21T07:27:49;24.80;60.10
9544;DHT22;30418;51.45933468;7.33152330;2023-08-21T07:30:17;24.80;60.10
9544;DHT22;30418;51.45933468;7.33152330;2023-08-21T07:32:46;24.90;60.20
9544;DHT22;30418;51.45933468;7.33152330;2023-08-21T07:35:15;24.90;60.30
9544;DHT22;30418;51.45933468;7.33152330;2023-08-21T07:37:44;25.00;60.30
9544;DHT22;30418;51.45933468;7.33152330;2023-08-21T07:40:13;25.00;60.40
9544;DHT22;30418;51.45933468;7.33152330;2023-08-21T07:42:45;25.00;60.40
9544;DHT22;30418;51.45933468;7.33152330;2023-08-21T07:45:13;25.00;60.40
9544;DHT22;30418;51.45933468;7.33152330;2023-08-21T07:47:42;25.10;60.50
9544;DHT22;30418;51.45933468;7.33152330;2023-08-21T07:50:11;25.10;60.50
9544;DHT22;30418;51.45933468;7.33152330;2023-08-21T07:52:41;25.10;60.50
9544;DHT22;30418;51.45933468;7.33152330;2023-08-21T07:55:09;25.20;60.50
9544;DHT22;30418;51.45933468;7.33152330;2023-08-21T07:57:38;25.20;60.50
9544;DHT22;30418;51.45933468;7.33152330;2023-08-21T08:00:09;25.20;60.70
9544;DHT22;30418;51.45933468;7.33152330;2023-08-21T08:02:42;25.30;60.40
9544;DHT22;30418;51.45933468;7.33152330;2023-08-21T08:05:11;25.20;60.20
9544;DHT22;30418;51.45933468;7.33152330;2023-08-21T08:07:40;25.20;60.20
9544;DHT22;30418;51.45933468;7.33152330;2023-08-21T08:10:09;25.30;60.30
9544;DHT22;30418;51.45933468;7.33152330;2023-08-21T08:12:37;25.20;60.30
9544;DHT22;30418;51.45933468;7.33152330;2023-08-21T08:15:11;25.30;61.30
9544;DHT22;30418;51.45933468;7.33152330;2023-08-21T08:17:39;25.40;60.60
9544;DHT22;30418;51.45933468;7.33152330;2023-08-21T08:20:09;25.40;60.50
9544;DHT22;30418;51.45933468;7.33152330;2023-08-21T08:22:38;25.40;60.40
9544;DHT22;30418;51.45933468;7.33152330;2023-08-21T08:25:07;25.50;60.30
9544;DHT22;30418;51.45933468;7.33152330;2023-08-21T08:27:37;25.50;60.20
9544;DHT22;30418;51.45933468;7.33152330;2023-08-21T08:30:06;25.60;60.20
9544;DHT22;30418;51.45933468;7.33152330;2023-08-21T08:32:37;25.60;60.10
9544;DHT22;30418;51.45933468;7.33152330;2023-08-21T08:35:12;25.70;60.10
9544;DHT22;30418;51.45933468;7.33152330;2023-08-21T08:37:40;25.80;60.20
9544;DHT22;30418;51.45933468;7.33152330;2023-08-21T08:40:11;25.80;60.10
9544;DHT22;30418;51.45933468;7.33152330;2023-08-21T08:42:39;25.90;59.90
9544;DHT22;30418;51.45933468;7.33152330;2023-08-21T08:45:08;25.90;59.90
9544;DHT22;30418;51.45933468;7.33152330;2023-08-21T08:47:40;26.00;59.90
9544;DHT22;30418;51.45933468;7.33152330;2023-08-21T08:50:09;26.00;59.70
9544;DHT22;30418;51.45933468;7.33152330;2023-08-21T08:52:38;26.10;59.50
9544;DHT22;30418;51.45933468;7.33152330;2023-08-21T08:55:08;26.10;59.20
9544;DHT22;30418;51.45933468;7.33152330;2023-08-21T08:57:38;26.20;59.30
9544;DHT22;30418;51.45933468;7.33152330;2023-08-21T09:00:07;26.20;59.30
9544;DHT22;30418;51.45933468;7.33152330;2023-08-21T09:02:37;26.20;59.50
9544;DHT22;30418;51.45933468;7.33152330;2023-08-21T09:05:08;26.20;59.30
9544;DHT22;30418;51.45933468;7.33152330;2023-08-21T09:07:37;26.20;59.90
9544;DHT22;30418;51.45933468;7.33152330;2023-08-21T09:10:12;26.30;59.30
9544;DHT22;30418;51.45933468;7.33152330;2023-08-21T09:12:45;26.30;59.00
9544;DHT22;30418;51.45933468;7.33152330;2023-08-21T09:15:14;26.40;59.20
9544;DHT22;30418;51.45933468;7.33152330;2023-08-21T09:17:53;26.40;59.10
9544;DHT22;30418;51.45933468;7.33152330;2023-08-21T09:20:22;26.40;58.90
9544;DHT22;30418;51.45933468;7.33152330;2023-08-21T09:22:54;26.50;59.00
9544;DHT22;30418;51.45933468;7.33152330;2023-08-21T09:25:23;26.50;59.10
9544;DHT22;30418;51.45933468;7.33152330;2023-08-21T09:27:53;26.50;58.90
9544;DHT22;30418;51.45933468;7.33152330;2023-08-21T09:30:22;26.50;59.00
9544;DHT22;30418;51.45933468;7.33152330;2023-08-21T09:32:57;26.60;59.00
9544;DHT22;30418;51.45933468;7.33152330;2023-08-21T09:35:28;26.60;58.80
9544;DHT22;30418;51.45933468;7.33152330;2023-08-21T09:38:00;26.60;58.70
9544;DHT22;30418;51.45933468;7.33152330;2023-08-21T09:40:29;26.70;58.80
9544;DHT22;30418;51.45933468;7.33152330;2023-08-21T09:42:57;26.70;58.60
9544;DHT22;30418;51.45933468;7.33152330;2023-08-21T09:45:27;26.70;58.60
9544;DHT22;30418;51.45933468;7.33152330;2023-08-21T09:47:57;26.80;58.60
9544;DHT22;30418;51.45933468;7.33152330;2023-08-21T09:50:29;26.80;58.50
9544;DHT22;30418;51.45933468;7.33152330;2023-08-21T09:52:58;26.80;58.50
9544;DHT22;30418;51.45933468;7.33152330;2023-08-21T09:55:26;26.80;58.50
9544;DHT22;30418;51.45933468;7.33152330;2023-08-21T09:57:59;26.80;59.20
9544;DHT22;30418;51.45933468;7.33152330;2023-08-21T10:00:30;26.90;58.40
9544;DHT22;30418;51.45933468;7.33152330;2023-08-21T10:03:02;26.90;59.00
9544;DHT22;30418;51.45933468;7.33152330;2023-08-21T10:05:33;26.90;58.30
9544;DHT22;30418;51.45933468;7.33152330;2023-08-21T10:08:03;27.00;58.30
9544;DHT22;30418;51.45933468;7.33152330;2023-08-21T10:10:34;27.00;58.20
9544;DHT22;30418;51.45933468;7.33152330;2023-08-21T10:13:05;27.00;58.10
9544;DHT22;30418;51.45933468;7.33152330;2023-08-21T10:15:37;27.10;58.20
9544;DHT22;30418;51.45933468;7.33152330;2023-08-21T10:18:20;27.10;58.30
9544;DHT22;30418;51.45933468;7.33152330;2023-08-21T10:20:51;27.20;57.70
9544;DHT22;30418;51.45933468;7.33152330;2023-08-21T10:23:24;27.30;57.80
9544;DHT22;30418;51.45933468;7.33152330;2023-08-21T10:25:55;27.30;57.60
9544;DHT22;30418;51.45933468;7.33152330;2023-08-21T10:28:48;27.40;57.60
9544;DHT22;30418;51.45933468;7.33152330;2023-08-21T10:31:32;27.40;57.20
9544;DHT22;30418;51.45933468;7.33152330;2023-08-21T10:34:05;27.50;57.00
9544;DHT22;30418;51.45933468;7.33152330;2023-08-21T10:37:07;27.50;57.20
9544;DHT22;30418;51.45933468;7.33152330;2023-08-21T10:39:54;27.60;56.90
9544;DHT22;30418;51.45933468;7.33152330;2023-08-21T10:42:37;27.60;56.80
9544;DHT22;30418;51.45933468;7.33152330;2023-08-21T10:45:11;27.60;56.70
9544;DHT22;30418;51.45933468;7.33152330;2023-08-21T10:47:41;27.70;57.00
9544;DHT22;30418;51.45933468;7.33152330;2023-08-21T10:50:11;27.70;57.00
9544;DHT22;30418;51.45933468;7.33152330;2023-08-21T10:52:40;27.70;56.80
9544;DHT22;30418;51.45933468;7.33152330;2023-08-21T10:55:12;27.80;57.00
9544;DHT22;30418;51.45933468;7.33152330;2023-08-21T10:57:42;27.80;56.90
9544;DHT22;30418;51.45933468;7.33152330;2023-08-21T11:00:12;27.80;56.90
9544;DHT22;30418;51.45933468;7.33152330;2023-08-21T11:02:43;27.80;56.70
9544;DHT22;30418;51.45933468;7.33152330;2023-08-21T11:05:14;27.90;56.60
9544;DHT22;30418;51.45933468;7.33152330;2023-08-21T11:07:44;27.90;56.50
9544;DHT22;30418;51.45933468;7.33152330;2023-08-21T11:10:15;27.90;56.60
9544;DHT22;30418;51.45933468;7.33152330;2023-08-21T11:12:49;27.90;56.50
9544;DHT22;30418;51.45933468;7.33152330;2023-08-21T11:15:18;28.00;56.70
9544;DHT22;30418;51.45933468;7.33152330;2023-08-21T11:17:57;28.00;56.70
9544;DHT22;30418;51.45933468;7.33152330;2023-08-21T11:20:29;28.10;56.10
9544;DHT22;30418;51.45933468;7.33152330;2023-08-21T11:22:58;28.10;56.30
9544;DHT22;30418;51.45933468;7.33152330;2023-08-21T11:25:29;28.10;56.40
9544;DHT22;30418;51.45933468;7.33152330;2023-08-21T11:27:58;28.20;56.50
9544;DHT22;30418;51.45933468;7.33152330;2023-08-21T11:30:30;28.20;56.20
9544;DHT22;30418;51.45933468;7.33152330;2023-08-21T11:33:06;28.20;56.10
9544;DHT22;30418;51.45933468;7.33152330;2023-08-21T11:35:37;28.20;56.10
9544;DHT22;30418;51.45933468;7.33152330;2023-08-21T11:38:06;28.30;56.30
9544;DHT22;30418;51.45933468;7.33152330;2023-08-21T11:40:42;28.30;56.60
9544;DHT22;30418;51.45933468;7.33152330;2023-08-21T11:43:19;28.40;56.30
9544;DHT22;30418;51.45933468;7.33152330;2023-08-21T11:45:48;28.40;56.20
9544;DHT22;30418;51.45933468;7.33152330;2023-08-21T11:48:25;28.40;56.20
9544;DHT22;30418;51.45933468;7.33152330;2023-08-21T11:50:55;28.50;56.10
9544;DHT22;30418;51.45933468;7.33152330;2023-08-21T11:53:34;28.50;56.10
9544;DHT22;30418;51.45933468;7.33152330;2023-08-21T11:56:09;28.50;55.90
9544;DHT22;30418;51.45933468;7.33152330;2023-08-21T11:58:38;28.60;55.80
9544;DHT22;30418;51.45933468;7.33152330;2023-08-21T12:01:07;28.60;55.80
9544;DHT22;30418;51.45933468;7.33152330;2023-08-21T12:03:38;28.70;55.60
9544;DHT22;30418;51.45933468;7.33152330;2023-08-21T12:06:11;28.70;55.70
9544;DHT22;30418;51.45933468;7.33152330;2023-08-21T12:08:40;28.80;55.80
9544;DHT22;30418;51.45933468;7.33152330;2023-08-21T12:11:08;28.80;55.80
9544;DHT22;30418;51.45933468;7.33152330;2023-08-21T12:13:37;28.90;55.80
9544;DHT22;30418;51.45933468;7.33152330;2023-08-21T12:16:05;28.90;55.50
9544;DHT22;30418;51.45933468;7.33152330;2023-08-21T12:18:34;29.00;55.30
9544;DHT22;30418;51.45933468;7.33152330;2023-08-21T12:21:02;29.00;55.20
9544;DHT22;30418;51.45933468;7.33152330;2023-08-21T12:23:32;29.00;55.10
9544;DHT22;30418;51.45933468;7.33152330;2023-08-21T12:26:01;29.00;54.70
9544;DHT22;30418;51.45933468;7.33152330;2023-08-21T12:28:30;29.10;54.70
9544;DHT22;30418;51.45933468;7.33152330;2023-08-21T12:30:58;29.10;55.00
9544;DHT22;30418;51.45933468;7.33152330;2023-08-21T12:33:27;29.10;54.90
9544;DHT22;30418;51.45933468;7.33152330;2023-08-21T12:35:56;29.10;55.00
9544;DHT22;30418;51.45933468;7.33152330;2023-08-21T12:38:25;29.10;54.70
9544;DHT22;30418;51.45933468;7.33152330;2023-08-21T12:40:58;29.10;54.70
9544;DHT22;30418;51.45933468;7.33152330;2023-08-21T12:43:27;29.20;54.80
9544;DHT22;30418;51.45933468;7.33152330;2023-08-21T12:45:55;29.20;54.70
9544;DHT22;30418;51.45933468;7.33152330;2023-08-21T12:48:24;29.20;54.60
9544;DHT22;30418;51.45933468;7.33152330;2023-08-21T12:50:52;29.30;54.70
9544;DHT22;30418;51.45933468;7.33152330;2023-08-21T12:53:21;29.30;54.60
9544;DHT22;30418;51.45933468;7.33152330;2023-08-21T12:55:50;29.30;54.30
9544;DHT22;30418;51.45933468;7.33152330;2023-08-21T12:58:19;29.40;54.30
9544;DHT22;30418;51.45933468;7.33152330;2023-08-21T13:00:48;29.40;54.20
9544;DHT22;30418;51.45933468;7.33152330;2023-08-21T13:03:16;29.50;54.40
9544;DHT22;30418;51.45933468;7.33152330;2023-08-21T13:05:45;29.50;54.10
9544;DHT22;30418;51.45933468;7.33152330;2023-08-21T13:08:13;29.50;54.00
9544;DHT22;30418;51.45933468;7.33152330;2023-08-21T13:10:42;29.60;54.10
9544;DHT22;30418;51.45933468;7.33152330;2023-08-21T13:13:11;29.70;54.00
9544;DHT22;30418;51.45933468;7.33152330;2023-08-21T13:15:41;29.70;53.90
9544;DHT22;30418;51.45933468;7.33152330;2023-08-21T13:18:11;29.80;53.80
9544;DHT22;30418;51.45933468;7.33152330;2023-08-21T13:20:41;29.80;53.60
9544;DHT22;30418;51.45933468;7.33152330;2023-08-21T13:23:10;29.80;53.40
9544;DHT22;30418;51.45933468;7.33152330;2023-08-21T13:25:39;29.80;53.20
9544;DHT22;30418;51.45933468;7.33152330;2023-08-21T13:28:07;29.90;53.50
9544;DHT22;30418;51.45933468;7.33152330;2023-08-21T13:30:37;29.90;53.20
9544;DHT22;30418;51.45933468;7.33152330;2023-08-21T13:33:07;30.00;53.20
9544;DHT22;30418;51.45933468;7.33152330;2023-08-21T13:35:36;30.00;53.00
9544;DHT22;30418;51.45933468;7.33152330;2023-08-21T13:38:04;30.00;52.90
9544;DHT22;30418;51.45933468;7.33152330;2023-08-21T13:40:33;30.00;52.90
9544;DHT22;30418;51.45933468;7.33152330;2023-08-21T13:43:01;30.00;52.70
9544;DHT22;30418;51.45933468;7.33152330;2023-08-21T13:45:30;30.00;52.40
9544;DHT22;30418;51.45933468;7.33152330;2023-08-21T13:47:59;30.00;52.30
9544;DHT22;30418;51.45933468;7.33152330;2023-08-21T13:50:29;30.00;52.30